sensor_id;sensor_type;location;lat;lon;timestamp;P1;durP1;ratioP1;P2;durP2;ratioP2
43962;SDS011;29622;45.534;9.242;2022-10-30T01:08:17;22.75;;;8.90;;
43962;SDS011;29622;45.534;9.242;2022-10-30T01:14:03;22.77;;;8.25;;
43962;SDS011;29622;45.534;9.242;2022-10-30T04:26:55;16.20;;;6.35;;
43962;SDS011;29622;45.534;9.242;2022-10-30T05:49:33;13.95;;;5.07;;
43962;SDS011;29622;45.534;9.242;2022-10-30T06:39:12;8.80;;;4.63;;
43962;SDS011;29622;45.534;9.242;2022-10-30T07:03:31;13.55;;;6.63;;
43962;SDS011;29622;45.534;9.242;2022-10-30T07:09:05;19.55;;;5.95;;
43962;SDS011;29622;45.534;9.242;2022-10-30T07:14:38;18.38;;;7.30;;
43962;SDS011;29622;45.534;9.242;2022-10-30T07:26:16;18.27;;;6.68;;
43962;SDS011;29622;45.534;9.242;2022-10-30T07:38:52;28.08;;;9.15;;
43962;SDS011;29622;45.534;9.242;2022-10-30T07:50:36;17.95;;;6.65;;
43962;SDS011;29622;45.534;9.242;2022-10-30T07:55:37;18.33;;;6.85;;
43962;SDS011;29622;45.534;9.242;2022-10-30T08:00:47;15.25;;;7.40;;
43962;SDS011;29622;45.534;9.242;2022-10-30T08:06:00;21.25;;;7.50;;
43962;SDS011;29622;45.534;9.242;2022-10-30T08:11:10;21.42;;;7.50;;
43962;SDS011;29622;45.534;9.242;2022-10-30T09:00:29;21.05;;;6.85;;
43962;SDS011;29622;45.534;9.242;2022-10-30T09:05:49;32.72;;;9.10;;
43962;SDS011;29622;45.534;9.242;2022-10-30T09:11:38;24.95;;;8.25;;
43962;SDS011;29622;45.534;9.242;2022-10-30T09:16:39;22.80;;;8.85;;
43962;SDS011;29622;45.534;9.242;2022-10-30T09:21:42;14.57;;;7.50;;
43962;SDS011;29622;45.534;9.242;2022-10-30T09:26:42;17.70;;;7.65;;
43962;SDS011;29622;45.534;9.242;2022-10-30T09:32:00;18.95;;;8.48;;
43962;SDS011;29622;45.534;9.242;2022-10-30T09:37:04;20.25;;;8.27;;
43962;SDS011;29622;45.534;9.242;2022-10-30T09:42:15;22.52;;;9.27;;
43962;SDS011;29622;45.534;9.242;2022-10-30T10:09:29;29.77;;;8.50;;
43962;SDS011;29622;45.534;9.242;2022-10-30T10:14:50;21.83;;;9.13;;
43962;SDS011;29622;45.534;9.242;2022-10-30T10:19:57;25.15;;;9.30;;
43962;SDS011;29622;45.534;9.242;2022-10-30T10:24:59;21.10;;;8.20;;
43962;SDS011;29622;45.534;9.242;2022-10-30T10:30:07;23.23;;;7.53;;
43962;SDS011;29622;45.534;9.242;2022-10-30T10:35:21;17.42;;;6.22;;
43962;SDS011;29622;45.534;9.242;2022-10-30T10:45:55;16.95;;;7.35;;
43962;SDS011;29622;45.534;9.242;2022-10-30T10:51:18;20.35;;;5.68;;
43962;SDS011;29622;45.534;9.242;2022-10-30T10:56:23;21.20;;;7.20;;
43962;SDS011;29622;45.534;9.242;2022-10-30T11:01:33;18.45;;;5.28;;
43962;SDS011;29622;45.534;9.242;2022-10-30T11:06:38;21.95;;;8.90;;
43962;SDS011;29622;45.534;9.242;2022-10-30T11:11:44;21.90;;;9.35;;
43962;SDS011;29622;45.534;9.242;2022-10-30T11:16:58;21.73;;;7.38;;
43962;SDS011;29622;45.534;9.242;2022-10-30T11:22:24;23.45;;;8.60;;
43962;SDS011;29622;45.534;9.242;2022-10-30T11:27:29;25.02;;;8.20;;
43962;SDS011;29622;45.534;9.242;2022-10-30T11:32:31;30.95;;;7.65;;
43962;SDS011;29622;45.534;9.242;2022-10-30T11:37:34;25.38;;;7.53;;
43962;SDS011;29622;45.534;9.242;2022-10-30T11:42:36;19.25;;;8.98;;
43962;SDS011;29622;45.534;9.242;2022-10-30T11:47:41;21.15;;;6.57;;
43962;SDS011;29622;45.534;9.242;2022-10-30T11:52:42;19.73;;;7.93;;
43962;SDS011;29622;45.534;9.242;2022-10-30T11:57:45;21.15;;;7.00;;
43962;SDS011;29622;45.534;9.242;2022-10-30T12:02:57;12.38;;;4.88;;
43962;SDS011;29622;45.534;9.242;2022-10-30T12:13:06;20.25;;;8.85;;
43962;SDS011;29622;45.534;9.242;2022-10-30T12:18:25;19.50;;;6.68;;
43962;SDS011;29622;45.534;9.242;2022-10-30T12:23:27;18.88;;;6.47;;
43962;SDS011;29622;45.534;9.242;2022-10-30T12:28:29;16.02;;;6.55;;
43962;SDS011;29622;45.534;9.242;2022-10-30T12:44:13;18.92;;;5.28;;
43962;SDS011;29622;45.534;9.242;2022-10-30T12:49:21;22.52;;;4.90;;
43962;SDS011;29622;45.534;9.242;2022-10-30T12:54:49;15.45;;;4.38;;
43962;SDS011;29622;45.534;9.242;2022-10-30T12:59:56;15.98;;;5.10;;
43962;SDS011;29622;45.534;9.242;2022-10-30T13:05:04;16.58;;;4.82;;
43962;SDS011;29622;45.534;9.242;2022-10-30T13:10:39;22.90;;;5.70;;
43962;SDS011;29622;45.534;9.242;2022-10-30T13:15:47;14.50;;;5.13;;
43962;SDS011;29622;45.534;9.242;2022-10-30T13:21:06;12.45;;;4.10;;
43962;SDS011;29622;45.534;9.242;2022-10-30T13:31:31;11.05;;;3.17;;
43962;SDS011;29622;45.534;9.242;2022-10-30T13:36:45;8.30;;;2.97;;
43962;SDS011;29622;45.534;9.242;2022-10-30T13:42:04;30.65;;;6.57;;
43962;SDS011;29622;45.534;9.242;2022-10-30T13:52:45;22.75;;;4.45;;
43962;SDS011;29622;45.534;9.242;2022-10-30T14:19:27;14.45;;;4.75;;
43962;SDS011;29622;45.534;9.242;2022-10-30T14:24:28;24.83;;;5.95;;
43962;SDS011;29622;45.534;9.242;2022-10-30T14:34:39;14.65;;;3.55;;
43962;SDS011;29622;45.534;9.242;2022-10-30T14:39:42;14.23;;;3.22;;
43962;SDS011;29622;45.534;9.242;2022-10-30T15:05:45;12.27;;;2.92;;
43962;SDS011;29622;45.534;9.242;2022-10-30T15:11:07;12.02;;;3.10;;
43962;SDS011;29622;45.534;9.242;2022-10-30T15:16:11;12.95;;;3.00;;
43962;SDS011;29622;45.534;9.242;2022-10-30T15:21:17;10.15;;;2.42;;
43962;SDS011;29622;45.534;9.242;2022-10-30T15:26:25;13.02;;;3.55;;
43962;SDS011;29622;45.534;9.242;2022-10-30T15:31:33;13.88;;;4.03;;
43962;SDS011;29622;45.534;9.242;2022-10-30T15:36:39;9.93;;;4.10;;
43962;SDS011;29622;45.534;9.242;2022-10-30T15:46:47;14.70;;;3.65;;
43962;SDS011;29622;45.534;9.242;2022-10-30T15:51:49;15.50;;;3.30;;
43962;SDS011;29622;45.534;9.242;2022-10-30T15:56:51;17.73;;;3.55;;
43962;SDS011;29622;45.534;9.242;2022-10-30T16:01:56;16.17;;;4.00;;
43962;SDS011;29622;45.534;9.242;2022-10-30T16:07:01;19.35;;;5.57;;
43962;SDS011;29622;45.534;9.242;2022-10-30T16:12:14;17.30;;;4.95;;
43962;SDS011;29622;45.534;9.242;2022-10-30T16:17:15;14.40;;;4.20;;
43962;SDS011;29622;45.534;9.242;2022-10-30T16:22:23;10.82;;;4.35;;
43962;SDS011;29622;45.534;9.242;2022-10-30T16:27:41;15.20;;;5.80;;
43962;SDS011;29622;45.534;9.242;2022-10-30T16:32:44;19.73;;;5.28;;
43962;SDS011;29622;45.534;9.242;2022-10-30T16:37:51;16.33;;;6.50;;
43962;SDS011;29622;45.534;9.242;2022-10-30T16:47:58;19.75;;;6.95;;
43962;SDS011;29622;45.534;9.242;2022-10-30T16:53:05;23.45;;;7.03;;
43962;SDS011;29622;45.534;9.242;2022-10-30T16:58:08;18.00;;;7.20;;
43962;SDS011;29622;45.534;9.242;2022-10-30T17:03:12;20.38;;;7.30;;
43962;SDS011;29622;45.534;9.242;2022-10-30T17:13:36;39.33;;;7.97;;
43962;SDS011;29622;45.534;9.242;2022-10-30T17:18:41;25.20;;;8.70;;
43962;SDS011;29622;45.534;9.242;2022-10-30T17:23:46;25.90;;;8.73;;
43962;SDS011;29622;45.534;9.242;2022-10-30T17:28:48;20.80;;;8.90;;
43962;SDS011;29622;45.534;9.242;2022-10-30T17:39:15;22.92;;;9.48;;
43962;SDS011;29622;45.534;9.242;2022-10-30T17:44:17;25.90;;;9.32;;
43962;SDS011;29622;45.534;9.242;2022-10-30T17:49:29;26.27;;;10.10;;
43962;SDS011;29622;45.534;9.242;2022-10-30T17:54:31;25.80;;;9.88;;
43962;SDS011;29622;45.534;9.242;2022-10-30T17:59:32;33.50;;;9.65;;
43962;SDS011;29622;45.534;9.242;2022-10-30T18:04:32;27.77;;;10.20;;
43962;SDS011;29622;45.534;9.242;2022-10-30T18:09:33;23.48;;;8.32;;
43962;SDS011;29622;45.534;9.242;2022-10-30T18:14:34;21.30;;;7.88;;
43962;SDS011;29622;45.534;9.242;2022-10-30T18:19:34;23.48;;;9.25;;
43962;SDS011;29622;45.534;9.242;2022-10-30T18:24:35;27.85;;;10.25;;
43962;SDS011;29622;45.534;9.242;2022-10-30T18:29:35;23.75;;;10.38;;
43962;SDS011;29622;45.534;9.242;2022-10-30T18:35:08;28.23;;;11.43;;
43962;SDS011;29622;45.534;9.242;2022-10-30T18:40:14;26.13;;;11.07;;
43962;SDS011;29622;45.534;9.242;2022-10-30T18:45:19;27.80;;;11.02;;
43962;SDS011;29622;45.534;9.242;2022-10-30T18:50:22;31.38;;;11.98;;
43962;SDS011;29622;45.534;9.242;2022-10-30T19:00:30;25.63;;;11.75;;
43962;SDS011;29622;45.534;9.242;2022-10-30T19:10:41;20.50;;;10.07;;
43962;SDS011;29622;45.534;9.242;2022-10-30T19:15:44;29.00;;;10.25;;
43962;SDS011;29622;45.534;9.242;2022-10-30T19:20:48;25.73;;;9.68;;
43962;SDS011;29622;45.534;9.242;2022-10-30T19:25:49;30.13;;;9.90;;
43962;SDS011;29622;45.534;9.242;2022-10-30T19:30:51;19.38;;;8.25;;
43962;SDS011;29622;45.534;9.242;2022-10-30T19:36:00;27.90;;;9.25;;
43962;SDS011;29622;45.534;9.242;2022-10-30T19:41:03;31.35;;;9.25;;
43962;SDS011;29622;45.534;9.242;2022-10-30T19:46:05;25.55;;;8.63;;
43962;SDS011;29622;45.534;9.242;2022-10-30T19:51:07;26.65;;;8.90;;
43962;SDS011;29622;45.534;9.242;2022-10-30T19:56:10;25.60;;;9.82;;
43962;SDS011;29622;45.534;9.242;2022-10-30T20:01:13;25.88;;;10.13;;
43962;SDS011;29622;45.534;9.242;2022-10-30T20:06:14;25.75;;;9.73;;
43962;SDS011;29622;45.534;9.242;2022-10-30T20:11:15;19.95;;;8.70;;
43962;SDS011;29622;45.534;9.242;2022-10-30T20:16:15;31.42;;;9.32;;
43962;SDS011;29622;45.534;9.242;2022-10-30T20:21:16;19.08;;;7.85;;
43962;SDS011;29622;45.534;9.242;2022-10-30T20:26:22;22.23;;;8.60;;
43962;SDS011;29622;45.534;9.242;2022-10-30T20:31:28;25.98;;;9.23;;
43962;SDS011;29622;45.534;9.242;2022-10-30T20:36:29;25.85;;;9.48;;
43962;SDS011;29622;45.534;9.242;2022-10-30T20:41:29;19.20;;;7.97;;
43962;SDS011;29622;45.534;9.242;2022-10-30T20:46:30;15.35;;;7.80;;
43962;SDS011;29622;45.534;9.242;2022-10-30T20:51:31;20.40;;;7.63;;
43962;SDS011;29622;45.534;9.242;2022-10-30T20:56:32;24.80;;;9.65;;
43962;SDS011;29622;45.534;9.242;2022-10-30T21:01:32;23.15;;;8.23;;
43962;SDS011;29622;45.534;9.242;2022-10-30T21:06:33;23.55;;;10.15;;
43962;SDS011;29622;45.534;9.242;2022-10-30T21:11:40;21.15;;;9.65;;
43962;SDS011;29622;45.534;9.242;2022-10-30T22:52:12;23.00;;;9.48;;
